Wheeler Observed Data For Previous 48 Hours

Caption
Day and Hour Reservoir Elevation (behind dam)* Tailwater Elevation (below dam)* Average Hourly Discharge*
10/16/2018 1 AM CDT 553.35 506.94 19,159
10/16/2018 2 AM CDT 553.36 506.97 19,170
10/16/2018 3 AM CDT 553.41 507.04 19,085
10/16/2018 4 AM CDT 553.44 507.10 19,131
10/16/2018 5 AM CDT 553.52 507.08 19,129
10/16/2018 6 AM CDT 553.51 507.13 19,222
10/16/2018 7 AM CDT 553.52 507.08 28,325
10/16/2018 8 AM CDT 553.54 507.12 37,876
10/16/2018 9 AM CDT 553.53 507.21 38,156
10/16/2018 10 AM CDT 553.54 507.20 47,363
10/16/2018 11 AM CDT 553.53 507.20 47,628
10/16/2018 12 PM CDT 553.50 507.31 47,654
10/16/2018 1 PM CDT 553.48 507.31 47,598
10/16/2018 2 PM CDT 553.47 507.33 47,536
10/16/2018 3 PM CDT 553.48 507.37 47,690
10/16/2018 4 PM CDT 553.44 507.33 47,745
10/16/2018 5 PM CDT 553.37 507.43 60,199
10/16/2018 6 PM CDT 553.34 507.50 60,808
10/16/2018 7 PM CDT 553.32 507.45 60,752
10/16/2018 8 PM CDT 553.27 507.49 60,681
10/16/2018 9 PM CDT 553.22 507.51 60,607
10/16/2018 10 PM CDT 553.22 507.49 48,112
10/16/2018 11 PM CDT 553.25 507.40 38,269
10/17/2018 12 AM CDT 553.37 507.22 20,175
10/17/2018 1 AM CDT 553.42 507.17 19,445
10/17/2018 2 AM CDT 553.43 507.21 19,509
10/17/2018 3 AM CDT 553.50 507.25 19,446
10/17/2018 4 AM CDT 553.58 507.23 19,463
10/17/2018 5 AM CDT 553.64 507.24 19,524
10/17/2018 6 AM CDT 553.67 507.35 19,622
10/17/2018 7 AM CDT 553.67 507.29 28,662
10/17/2018 8 AM CDT 553.66 507.37 38,042
10/17/2018 9 AM CDT 553.68 507.82 47,281
10/17/2018 10 AM CDT 553.66 507.86 59,808
10/17/2018 11 AM CDT 553.65 507.92 60,417
10/17/2018 12 PM CDT 553.66 507.84 60,668
10/17/2018 1 PM CDT 553.63 507.91 60,654
10/17/2018 2 PM CDT 553.62 507.95 48,144
10/17/2018 3 PM CDT 553.61 507.80 47,688
10/17/2018 4 PM CDT 553.57 507.79 47,683
10/17/2018 5 PM CDT 553.53 507.92 59,895
10/17/2018 6 PM CDT 553.50 507.97 60,381
10/17/2018 7 PM CDT 553.48 507.84 60,456
10/17/2018 8 PM CDT 553.44 507.98 60,302
10/17/2018 9 PM CDT 553.39 507.92 60,369
10/17/2018 10 PM CDT 553.43 507.94 48,010
10/17/2018 11 PM CDT 553.46 507.78 38,683
10/18/2018 12 AM CDT 553.50 507.50 19,974
10/18/2018 1 AM CDT 553.52 507.41 19,425
10/18/2018 2 AM CDT 553.54 507.41 19,511
10/18/2018 3 AM CDT 553.60 507.46 19,504
10/18/2018 4 AM CDT 553.59 507.43 19,620
10/18/2018 5 AM CDT 553.58 507.38 28,722
10/18/2018 6 AM CDT 553.57 507.47 37,913
10/18/2018 7 AM CDT 553.55 507.84 47,095
10/18/2018 8 AM CDT 553.50 507.97 59,777
10/18/2018 9 AM CDT 553.50 507.94 60,382
10/18/2018 10 AM CDT 553.48 507.97 60,275
10/18/2018 11 AM CDT 553.43 507.91 60,273
10/18/2018 12 PM CDT 553.38 507.92 60,583
10/18/2018 1 PM CDT 553.40 507.88 47,937
10/18/2018 2 PM CDT 553.46 507.62 38,476
10/18/2018 3 PM CDT 553.44 507.58 37,854

Elevations are in feet above sea level. Discharges are in cubic feet per second and are reported at the end of the hour.